createdAt,value
2016-07-07T00:02:04.984Z,13.9
2016-07-07T00:07:04.896Z,13.9
2016-07-07T00:12:05.112Z,13.8
2016-07-07T00:17:06.747Z,13.8
2016-07-07T00:22:04.530Z,13.8
2016-07-07T00:27:04.765Z,13.8
2016-07-07T00:32:05.040Z,13.7
2016-07-07T00:37:04.621Z,13.7
2016-07-07T00:42:04.963Z,13.4
2016-07-07T00:47:05.249Z,13.5
2016-07-07T00:52:04.364Z,13.4
2016-07-07T00:57:04.819Z,13.3
2016-07-07T01:02:05.085Z,13.2
2016-07-07T01:07:04.971Z,13.2
2016-07-07T01:12:04.582Z,13.0
2016-07-07T01:17:06.456Z,13.0
2016-07-07T01:22:04.311Z,12.6
2016-07-07T01:27:04.706Z,12.7
2016-07-07T01:32:05.161Z,12.8
2016-07-07T01:37:04.764Z,12.7
2016-07-07T01:42:04.813Z,12.8
2016-07-07T01:47:04.804Z,12.9
2016-07-07T01:52:05.194Z,12.9
2016-07-07T01:57:04.754Z,12.8
2016-07-07T02:02:05.278Z,12.8
2016-07-07T02:07:04.497Z,12.7
2016-07-07T02:12:05.244Z,12.7
2016-07-07T02:17:06.237Z,12.8
2016-07-07T02:22:05.253Z,12.8
2016-07-07T02:27:04.623Z,12.8
2016-07-07T02:32:05.214Z,12.8
2016-07-07T02:37:04.127Z,12.7
2016-07-07T02:42:04.650Z,12.5
2016-07-07T02:47:10.886Z,12.5
2016-07-07T02:52:04.925Z,12.5
2016-07-07T02:57:05.393Z,12.5
2016-07-07T03:02:23.302Z,12.4
2016-07-07T03:07:05.188Z,12.4
2016-07-07T03:12:04.101Z,12.3
2016-07-07T03:17:24.289Z,12.3
2016-07-07T03:22:04.049Z,12.3
2016-07-07T03:27:05.147Z,12.2
2016-07-07T03:32:22.975Z,12.1
2016-07-07T03:37:04.103Z,12.1
2016-07-07T03:42:04.495Z,12.2
2016-07-07T03:47:17.728Z,12.1
2016-07-07T03:52:04.215Z,12.1
2016-07-07T03:57:04.022Z,12.2
2016-07-07T04:02:22.378Z,12.2
2016-07-07T04:07:04.144Z,12.3
2016-07-07T04:12:03.640Z,12.4
2016-07-07T04:17:21.047Z,12.3
2016-07-07T04:22:04.376Z,12.4
2016-07-07T04:27:04.441Z,12.5
2016-07-07T04:32:18.505Z,12.6
2016-07-07T04:37:05.030Z,12.6
2016-07-07T04:42:04.893Z,13.0
2016-07-07T04:47:25.433Z,13.0
2016-07-07T04:52:04.641Z,13.5
2016-07-07T04:57:05.195Z,13.7
2016-07-07T05:02:19.066Z,13.9
2016-07-07T05:07:04.983Z,13.9
2016-07-07T05:12:04.602Z,14.5
2016-07-07T05:17:21.257Z,14.6
2016-07-07T05:22:04.818Z,14.6
2016-07-07T05:27:04.568Z,14.9
2016-07-07T05:32:19.762Z,15.3
2016-07-07T05:37:05.157Z,15.3
2016-07-07T05:42:04.178Z,15.8
2016-07-07T05:47:17.416Z,16.1
2016-07-07T05:52:05.323Z,16.4
2016-07-07T05:57:04.403Z,16.4
2016-07-07T06:02:23.902Z,16.9
2016-07-07T06:07:05.449Z,17.2
2016-07-07T06:12:05.289Z,17.2
2016-07-07T06:17:23.848Z,17.6
2016-07-07T06:22:04.610Z,18.1
2016-07-07T06:27:04.377Z,18.3
2016-07-07T06:32:18.510Z,18.3
2016-07-07T06:37:04.666Z,18.9
2016-07-07T06:42:05.006Z,18.8
2016-07-07T06:47:21.258Z,19.4
2016-07-07T06:52:04.770Z,19.7
2016-07-07T06:57:04.479Z,19.7
2016-07-07T07:02:22.125Z,20.4
2016-07-07T07:07:05.088Z,20.8
2016-07-07T07:12:04.157Z,21.1
2016-07-07T07:17:19.107Z,21.1
2016-07-07T07:22:04.298Z,21.7
2016-07-07T07:27:05.248Z,21.8
2016-07-07T07:32:18.321Z,22.2
2016-07-07T07:37:04.510Z,22.4
2016-07-07T07:42:04.829Z,23.1
2016-07-07T07:47:23.634Z,23.4
2016-07-07T07:52:04.935Z,23.4
2016-07-07T07:57:04.258Z,24.1
2016-07-07T08:02:17.436Z,24.1
2016-07-07T08:07:03.994Z,24.4
2016-07-07T08:12:04.368Z,24.8
2016-07-07T08:17:20.632Z,25.1
2016-07-07T08:22:04.577Z,25.1
2016-07-07T08:27:04.211Z,25.3
2016-07-07T08:37:04.098Z,26.1
2016-07-07T08:42:04.232Z,26.1
2016-07-07T08:47:24.211Z,26.9
2016-07-07T08:52:04.222Z,27.2
2016-07-07T08:57:04.489Z,27.2
2016-07-07T09:02:18.865Z,27.6
2016-07-07T09:07:04.222Z,27.6
2016-07-07T09:12:03.828Z,28.0
2016-07-07T09:17:24.724Z,28.2
2016-07-07T09:22:04.080Z,28.2
2016-07-07T09:27:04.247Z,28.7
2016-07-07T09:32:18.826Z,28.7
2016-07-07T09:37:04.114Z,28.8
2016-07-07T09:42:04.029Z,28.8
2016-07-07T09:47:18.733Z,29.1
2016-07-07T09:52:04.175Z,29.3
2016-07-07T09:57:04.171Z,29.6
2016-07-07T10:02:15.988Z,29.5
2016-07-07T10:07:03.799Z,29.7
2016-07-07T10:12:03.497Z,29.8
2016-07-07T10:17:25.544Z,29.8
2016-07-07T10:22:04.322Z,30.2
2016-07-07T10:27:03.908Z,30.5
2016-07-07T10:32:22.969Z,30.5
2016-07-07T10:37:03.412Z,30.7
2016-07-07T10:42:04.043Z,31.1
2016-07-07T10:47:18.922Z,31.5
2016-07-07T10:52:04.276Z,31.4
2016-07-07T10:57:04.288Z,31.4
2016-07-07T11:02:23.328Z,31.4
2016-07-07T11:07:04.333Z,31.6
2016-07-07T11:12:03.358Z,31.5
2016-07-07T11:17:21.435Z,32.1
2016-07-07T11:22:03.720Z,32.1
2016-07-07T11:27:03.363Z,32.0
2016-07-07T11:32:18.505Z,31.7
2016-07-07T11:37:03.889Z,31.7
2016-07-07T11:42:03.962Z,31.4
2016-07-07T11:47:18.085Z,32.2
2016-07-07T11:52:03.816Z,32.6
2016-07-07T11:57:04.110Z,32.6
2016-07-07T12:02:15.585Z,33.0
2016-07-07T12:07:03.768Z,32.9
2016-07-07T12:12:03.884Z,32.8
2016-07-07T12:17:20.803Z,32.8
2016-07-07T12:22:04.292Z,32.7
2016-07-07T12:27:03.493Z,32.7
2016-07-07T12:32:18.358Z,33.9
2016-07-07T12:37:03.728Z,33.9
2016-07-07T12:42:04.862Z,34.5
2016-07-07T12:47:18.350Z,34.4
2016-07-07T12:52:05.293Z,35.4
2016-07-07T12:57:03.830Z,35.3
2016-07-07T13:02:18.967Z,35.8
2016-07-07T13:07:03.723Z,35.6
2016-07-07T13:12:03.610Z,35.6
2016-07-07T13:17:20.712Z,36.1
2016-07-07T13:22:04.465Z,36.1
2016-07-07T13:27:03.754Z,36.3
2016-07-07T13:32:18.804Z,36.3
2016-07-07T13:37:03.593Z,36.8
2016-07-07T13:42:03.774Z,37.2
2016-07-07T13:47:18.379Z,37.4
2016-07-07T13:52:03.321Z,37.3
2016-07-07T13:57:04.481Z,37.0
2016-07-07T20:02:20.309Z,23.3
2016-07-07T20:07:04.605Z,23.3
2016-07-07T20:12:04.283Z,22.7
2016-07-07T20:17:08.348Z,22.5
2016-07-07T20:22:04.807Z,22.2
2016-07-07T20:27:04.769Z,22.1
2016-07-07T20:32:06.936Z,21.6
2016-07-07T20:37:05.036Z,21.6
2016-07-07T20:42:04.319Z,21.3
2016-07-07T20:47:04.680Z,21.0
2016-07-07T20:52:04.581Z,21.0
2016-07-07T20:57:04.965Z,20.9
2016-07-07T21:02:04.858Z,20.7
2016-07-07T21:07:05.129Z,20.5
2016-07-07T21:12:05.197Z,20.4
2016-07-07T21:17:07.214Z,20.2
2016-07-07T21:22:04.437Z,20.1
2016-07-07T21:27:04.577Z,20.0
2016-07-07T21:32:04.031Z,19.9
2016-07-07T21:37:04.669Z,19.8
2016-07-07T21:42:04.426Z,19.8
2016-07-07T21:47:05.441Z,19.5
2016-07-07T21:52:05.356Z,19.5
2016-07-07T21:57:04.865Z,19.4
2016-07-07T22:02:05.352Z,19.0
2016-07-07T22:07:04.504Z,19.0
2016-07-07T22:12:04.371Z,18.8
2016-07-07T22:17:06.765Z,18.8
2016-07-07T22:22:04.734Z,18.8
2016-07-07T22:27:05.182Z,18.4
2016-07-07T22:32:04.755Z,18.2
2016-07-07T22:37:04.534Z,18.0
2016-07-07T22:42:04.696Z,18.0
2016-07-07T22:47:05.400Z,17.8
2016-07-07T22:52:04.731Z,17.8
2016-07-07T22:57:04.858Z,17.8
2016-07-07T23:02:04.756Z,17.7
2016-07-07T23:07:04.849Z,17.6
2016-07-07T23:12:04.466Z,17.6
2016-07-07T23:17:06.586Z,17.5
2016-07-07T23:22:04.672Z,17.4
2016-07-07T23:27:05.233Z,17.3
2016-07-07T23:32:05.205Z,17.1
2016-07-07T23:37:04.782Z,17.1
2016-07-07T23:42:04.694Z,17.0
2016-07-07T23:47:05.530Z,16.7
2016-07-07T23:52:04.903Z,16.6
2016-07-07T23:57:04.594Z,16.5
